CheckWX is a tool to help pilots better visualize weather data.  It is not intended as a substitute for an official pre-flight weather briefing.

21:38:52 UTC

KPAE TAF
Snohomish County (Paine Field) Airport
Everett, Washington, USA
KPAE 201737Z 2018/2118 03007KT P6SM SKC FM202100 13006KT P6SM SKC FM210300 15006KT P6SM SCT100 FM211200 17007KT P6SM BKN100

Mar-20@
18:00 UTC

Mar-20 @ 18:00 UTC

Mar-20@
21:00 UTC

Mar-20 @ 21:00 UTC

KPAE 201737Z 2018/2118 03007KT P6SM SKC

Expired

Wind
  • 030° at 7 KTS
Cloud Levels
  • Clear skies

Mar-20@
21:00 UTC

Mar-20 @ 21:00 UTC

Mar-21@
03:00 UTC

Mar-21 @ 03:00 UTC

FM202100 13006KT P6SM SKC

From

From Standard forecast or significant change

Wind
  • 130° at 6 KTS
Cloud Levels
  • Clear skies

Mar-21@
03:00 UTC

Mar-21 @ 03:00 UTC

Mar-21@
12:00 UTC

Mar-21 @ 12:00 UTC

FM210300 15006KT P6SM SCT100

From

From Standard forecast or significant change

Wind
  • 150° at 6 KTS
Cloud Levels
  • Scattered at 10,000' AGL

Mar-21@
12:00 UTC

Mar-21 @ 12:00 UTC

Mar-21@
18:00 UTC

Mar-21 @ 18:00 UTC

FM211200 17007KT P6SM BKN100

From

From Standard forecast or significant change

Wind
  • 170° at 7 KTS
Cloud Levels
  • Broken at 10,000' AGL